sensor_id;sensor_type;location;lat;lon;timestamp;temperature;humidity
59208;DHT22;44977;53.132;6.408;2022-08-19T00:04:10;16.40;99.90
59208;DHT22;44977;53.132;6.408;2022-08-19T00:09:14;16.40;99.90
59208;DHT22;44977;53.132;6.408;2022-08-19T00:14:16;16.30;99.90
59208;DHT22;44977;53.132;6.408;2022-08-19T00:19:17;16.20;99.90
59208;DHT22;44977;53.132;6.408;2022-08-19T00:24:18;16.20;99.90
59208;DHT22;44977;53.132;6.408;2022-08-19T00:29:20;16.10;99.90
59208;DHT22;44977;53.132;6.408;2022-08-19T00:34:22;16.10;99.90
59208;DHT22;44977;53.132;6.408;2022-08-19T00:39:23;16.10;99.90
59208;DHT22;44977;53.132;6.408;2022-08-19T00:44:27;16.10;99.90
59208;DHT22;44977;53.132;6.408;2022-08-19T00:49:33;16.00;99.90
59208;DHT22;44977;53.132;6.408;2022-08-19T00:54:37;16.00;99.90
59208;DHT22;44977;53.132;6.408;2022-08-19T00:59:40;16.00;99.90
59208;DHT22;44977;53.132;6.408;2022-08-19T01:04:42;15.90;99.90
59208;DHT22;44977;53.132;6.408;2022-08-19T01:09:43;15.90;99.90
59208;DHT22;44977;53.132;6.408;2022-08-19T01:14:45;15.80;99.90
59208;DHT22;44977;53.132;6.408;2022-08-19T01:19:46;15.80;99.90
59208;DHT22;44977;53.132;6.408;2022-08-19T01:24:47;15.70;99.90
59208;DHT22;44977;53.132;6.408;2022-08-19T01:29:48;15.60;99.90
59208;DHT22;44977;53.132;6.408;2022-08-19T01:34:49;15.60;99.90
59208;DHT22;44977;53.132;6.408;2022-08-19T01:39:49;15.60;99.90
59208;DHT22;44977;53.132;6.408;2022-08-19T01:44:50;15.60;99.90
59208;DHT22;44977;53.132;6.408;2022-08-19T01:49:51;15.50;99.90
59208;DHT22;44977;53.132;6.408;2022-08-19T01:54:51;15.50;99.90
59208;DHT22;44977;53.132;6.408;2022-08-19T01:59:52;15.40;99.90
59208;DHT22;44977;53.132;6.408;2022-08-19T02:04:53;15.40;99.90
59208;DHT22;44977;53.132;6.408;2022-08-19T02:09:54;15.30;99.90
59208;DHT22;44977;53.132;6.408;2022-08-19T02:14:56;15.30;99.90
59208;DHT22;44977;53.132;6.408;2022-08-19T02:19:57;15.20;99.90
59208;DHT22;44977;53.132;6.408;2022-08-19T02:24:58;15.20;99.90
59208;DHT22;44977;53.132;6.408;2022-08-19T02:29:59;15.20;99.90
59208;DHT22;44977;53.132;6.408;2022-08-19T02:35:01;15.20;99.90
59208;DHT22;44977;53.132;6.408;2022-08-19T02:40:03;15.20;99.90
59208;DHT22;44977;53.132;6.408;2022-08-19T02:45:04;15.10;99.90
59208;DHT22;44977;53.132;6.408;2022-08-19T02:50:06;15.10;99.90
59208;DHT22;44977;53.132;6.408;2022-08-19T02:55:07;15.10;99.90
59208;DHT22;44977;53.132;6.408;2022-08-19T03:00:08;15.10;99.90
59208;DHT22;44977;53.132;6.408;2022-08-19T03:05:12;15.00;99.90
59208;DHT22;44977;53.132;6.408;2022-08-19T03:10:13;15.00;99.90
59208;DHT22;44977;53.132;6.408;2022-08-19T03:15:14;15.00;99.90
59208;DHT22;44977;53.132;6.408;2022-08-19T03:20:15;14.90;99.90
59208;DHT22;44977;53.132;6.408;2022-08-19T03:25:16;14.90;99.90
59208;DHT22;44977;53.132;6.408;2022-08-19T03:30:17;14.90;99.90
59208;DHT22;44977;53.132;6.408;2022-08-19T03:35:18;14.90;99.90
59208;DHT22;44977;53.132;6.408;2022-08-19T03:40:19;14.80;99.90
59208;DHT22;44977;53.132;6.408;2022-08-19T03:45:20;14.90;99.90
59208;DHT22;44977;53.132;6.408;2022-08-19T03:50:21;14.90;99.90
59208;DHT22;44977;53.132;6.408;2022-08-19T03:55:22;14.80;99.90
59208;DHT22;44977;53.132;6.408;2022-08-19T04:00:22;14.80;99.90
59208;DHT22;44977;53.132;6.408;2022-08-19T04:05:23;14.80;99.90
59208;DHT22;44977;53.132;6.408;2022-08-19T04:10:24;14.80;99.90
59208;DHT22;44977;53.132;6.408;2022-08-19T04:15:25;14.80;99.90
59208;DHT22;44977;53.132;6.408;2022-08-19T04:20:25;14.70;99.90
59208;DHT22;44977;53.132;6.408;2022-08-19T04:25:26;14.80;99.90
59208;DHT22;44977;53.132;6.408;2022-08-19T04:30:27;14.70;99.90
59208;DHT22;44977;53.132;6.408;2022-08-19T04:35:27;14.70;99.90
59208;DHT22;44977;53.132;6.408;2022-08-19T04:40:28;14.70;99.90
59208;DHT22;44977;53.132;6.408;2022-08-19T04:45:48;14.70;99.90
59208;DHT22;44977;53.132;6.408;2022-08-19T04:50:48;14.60;99.90
59208;DHT22;44977;53.132;6.408;2022-08-19T04:55:49;14.70;99.90
59208;DHT22;44977;53.132;6.408;2022-08-19T05:00:50;14.70;99.90
59208;DHT22;44977;53.132;6.408;2022-08-19T05:05:50;14.70;99.90
59208;DHT22;44977;53.132;6.408;2022-08-19T05:10:51;14.70;99.90
59208;DHT22;44977;53.132;6.408;2022-08-19T05:15:57;14.70;99.90
59208;DHT22;44977;53.132;6.408;2022-08-19T05:20:58;14.80;99.90
59208;DHT22;44977;53.132;6.408;2022-08-19T05:26:17;14.80;99.90
59208;DHT22;44977;53.132;6.408;2022-08-19T05:31:18;14.80;99.90
59208;DHT22;44977;53.132;6.408;2022-08-19T05:36:19;15.00;99.90
59208;DHT22;44977;53.132;6.408;2022-08-19T05:41:21;15.00;99.90
59208;DHT22;44977;53.132;6.408;2022-08-19T05:46:24;15.20;99.90
59208;DHT22;44977;53.132;6.408;2022-08-19T05:51:25;15.30;99.90
59208;DHT22;44977;53.132;6.408;2022-08-19T05:56:26;15.50;99.90
59208;DHT22;44977;53.132;6.408;2022-08-19T06:01:26;15.60;99.90
59208;DHT22;44977;53.132;6.408;2022-08-19T06:06:27;15.80;99.90
59208;DHT22;44977;53.132;6.408;2022-08-19T06:11:40;16.00;99.90
59208;DHT22;44977;53.132;6.408;2022-08-19T06:16:42;16.20;99.90
59208;DHT22;44977;53.132;6.408;2022-08-19T06:21:45;16.50;99.90
59208;DHT22;44977;53.132;6.408;2022-08-19T06:26:48;16.70;99.90
59208;DHT22;44977;53.132;6.408;2022-08-19T06:31:52;16.90;99.90
59208;DHT22;44977;53.132;6.408;2022-08-19T06:36:54;17.10;99.90
59208;DHT22;44977;53.132;6.408;2022-08-19T06:41:57;17.40;99.90
59208;DHT22;44977;53.132;6.408;2022-08-19T06:47:00;17.60;99.90
59208;DHT22;44977;53.132;6.408;2022-08-19T06:52:03;17.80;99.90
59208;DHT22;44977;53.132;6.408;2022-08-19T06:57:04;18.10;99.90
59208;DHT22;44977;53.132;6.408;2022-08-19T07:02:06;18.30;99.90
59208;DHT22;44977;53.132;6.408;2022-08-19T07:07:10;18.60;99.90
59208;DHT22;44977;53.132;6.408;2022-08-19T07:12:13;18.80;99.90
59208;DHT22;44977;53.132;6.408;2022-08-19T07:17:15;19.00;99.90
59208;DHT22;44977;53.132;6.408;2022-08-19T07:22:17;19.30;99.90
59208;DHT22;44977;53.132;6.408;2022-08-19T07:27:18;19.60;99.90
59208;DHT22;44977;53.132;6.408;2022-08-19T07:32:19;19.80;99.90
59208;DHT22;44977;53.132;6.408;2022-08-19T07:37:20;20.10;99.90
59208;DHT22;44977;53.132;6.408;2022-08-19T07:42:20;20.40;99.90
59208;DHT22;44977;53.132;6.408;2022-08-19T07:47:21;20.70;99.90
59208;DHT22;44977;53.132;6.408;2022-08-19T07:52:22;21.00;99.90
59208;DHT22;44977;53.132;6.408;2022-08-19T07:57:23;21.30;99.90
59208;DHT22;44977;53.132;6.408;2022-08-19T08:02:24;21.50;99.90
59208;DHT22;44977;53.132;6.408;2022-08-19T08:07:25;21.90;99.90
59208;DHT22;44977;53.132;6.408;2022-08-19T08:12:44;22.10;99.90
59208;DHT22;44977;53.132;6.408;2022-08-19T08:17:45;22.20;99.90
59208;DHT22;44977;53.132;6.408;2022-08-19T08:22:46;22.40;99.90
59208;DHT22;44977;53.132;6.408;2022-08-19T08:28:06;22.50;99.90
59208;DHT22;44977;53.132;6.408;2022-08-19T08:33:08;22.60;99.90
59208;DHT22;44977;53.132;6.408;2022-08-19T08:38:09;22.90;99.90
59208;DHT22;44977;53.132;6.408;2022-08-19T08:43:34;23.20;99.90
59208;DHT22;44977;53.132;6.408;2022-08-19T08:53:56;23.70;99.90
59208;DHT22;44977;53.132;6.408;2022-08-19T08:59:04;23.90;99.90
59208;DHT22;44977;53.132;6.408;2022-08-19T09:04:12;24.20;99.90
59208;DHT22;44977;53.132;6.408;2022-08-19T09:09:18;24.30;99.90
59208;DHT22;44977;53.132;6.408;2022-08-19T09:14:34;24.50;99.90
59208;DHT22;44977;53.132;6.408;2022-08-19T09:19:51;24.90;99.90
59208;DHT22;44977;53.132;6.408;2022-08-19T09:24:53;25.10;99.90
59208;DHT22;44977;53.132;6.408;2022-08-19T09:29:54;25.30;99.90
59208;DHT22;44977;53.132;6.408;2022-08-19T09:34:55;25.40;99.90
59208;DHT22;44977;53.132;6.408;2022-08-19T09:39:58;25.40;99.90
59208;DHT22;44977;53.132;6.408;2022-08-19T09:44:59;25.70;99.90
59208;DHT22;44977;53.132;6.408;2022-08-19T09:50:00;25.80;99.90
59208;DHT22;44977;53.132;6.408;2022-08-19T09:55:00;25.90;99.90
59208;DHT22;44977;53.132;6.408;2022-08-19T10:00:04;26.00;99.90
59208;DHT22;44977;53.132;6.408;2022-08-19T10:05:05;26.10;99.90
59208;DHT22;44977;53.132;6.408;2022-08-19T10:10:24;26.40;99.90
59208;DHT22;44977;53.132;6.408;2022-08-19T10:15:25;26.50;99.90
59208;DHT22;44977;53.132;6.408;2022-08-19T10:20:26;26.70;99.90
59208;DHT22;44977;53.132;6.408;2022-08-19T10:25:26;26.90;99.90
59208;DHT22;44977;53.132;6.408;2022-08-19T10:30:27;27.00;99.90
59208;DHT22;44977;53.132;6.408;2022-08-19T10:35:28;27.20;99.90
59208;DHT22;44977;53.132;6.408;2022-08-19T10:40:29;27.00;99.90
59208;DHT22;44977;53.132;6.408;2022-08-19T10:45:30;27.20;99.90
59208;DHT22;44977;53.132;6.408;2022-08-19T10:50:31;27.50;99.90
59208;DHT22;44977;53.132;6.408;2022-08-19T10:55:50;27.60;99.90
59208;DHT22;44977;53.132;6.408;2022-08-19T11:01:09;27.80;99.90
59208;DHT22;44977;53.132;6.408;2022-08-19T11:06:11;28.00;99.90
59208;DHT22;44977;53.132;6.408;2022-08-19T11:11:12;28.10;99.90
59208;DHT22;44977;53.132;6.408;2022-08-19T11:16:16;28.10;99.90
59208;DHT22;44977;53.132;6.408;2022-08-19T11:21:21;28.40;99.90
59208;DHT22;44977;53.132;6.408;2022-08-19T11:26:23;28.40;99.30
59208;DHT22;44977;53.132;6.408;2022-08-19T11:31:30;28.40;99.40
59208;DHT22;44977;53.132;6.408;2022-08-19T11:36:31;28.40;98.20
59208;DHT22;44977;53.132;6.408;2022-08-19T11:41:33;28.30;99.20
59208;DHT22;44977;53.132;6.408;2022-08-19T11:46:35;28.10;97.80
59208;DHT22;44977;53.132;6.408;2022-08-19T11:51:36;28.00;99.90
59208;DHT22;44977;53.132;6.408;2022-08-19T11:56:38;27.70;99.90
59208;DHT22;44977;53.132;6.408;2022-08-19T12:01:38;27.40;99.90
59208;DHT22;44977;53.132;6.408;2022-08-19T12:06:41;27.20;99.90
59208;DHT22;44977;53.132;6.408;2022-08-19T12:11:42;27.10;99.90
59208;DHT22;44977;53.132;6.408;2022-08-19T12:16:44;27.20;99.90
59208;DHT22;44977;53.132;6.408;2022-08-19T12:21:46;27.50;99.90
59208;DHT22;44977;53.132;6.408;2022-08-19T12:26:48;27.40;99.90
59208;DHT22;44977;53.132;6.408;2022-08-19T12:31:49;27.30;99.90
59208;DHT22;44977;53.132;6.408;2022-08-19T12:36:50;27.20;99.90
59208;DHT22;44977;53.132;6.408;2022-08-19T12:41:51;27.20;99.90
59208;DHT22;44977;53.132;6.408;2022-08-19T12:46:52;27.10;99.90
59208;DHT22;44977;53.132;6.408;2022-08-19T12:51:53;27.00;99.90
59208;DHT22;44977;53.132;6.408;2022-08-19T12:56:53;26.90;99.90
59208;DHT22;44977;53.132;6.408;2022-08-19T13:01:54;26.80;99.90
59208;DHT22;44977;53.132;6.408;2022-08-19T13:06:55;26.60;99.90
59208;DHT22;44977;53.132;6.408;2022-08-19T13:11:56;26.50;99.90
59208;DHT22;44977;53.132;6.408;2022-08-19T13:16:57;26.50;99.90
59208;DHT22;44977;53.132;6.408;2022-08-19T13:21:57;26.50;99.90
59208;DHT22;44977;53.132;6.408;2022-08-19T13:27:00;26.40;99.90
59208;DHT22;44977;53.132;6.408;2022-08-19T13:32:01;26.30;99.90
59208;DHT22;44977;53.132;6.408;2022-08-19T13:37:20;26.10;99.90
59208;DHT22;44977;53.132;6.408;2022-08-19T13:42:41;25.90;99.90
59208;DHT22;44977;53.132;6.408;2022-08-19T13:47:44;25.80;99.90
59208;DHT22;44977;53.132;6.408;2022-08-19T13:52:45;25.60;99.90
59208;DHT22;44977;53.132;6.408;2022-08-19T13:57:52;25.40;99.90
59208;DHT22;44977;53.132;6.408;2022-08-19T14:02:56;25.30;99.90
59208;DHT22;44977;53.132;6.408;2022-08-19T14:07:57;25.20;99.90
59208;DHT22;44977;53.132;6.408;2022-08-19T14:13:00;25.10;99.90
59208;DHT22;44977;53.132;6.408;2022-08-19T14:18:01;25.00;99.90
59208;DHT22;44977;53.132;6.408;2022-08-19T14:23:03;25.10;99.90
59208;DHT22;44977;53.132;6.408;2022-08-19T14:28:05;25.20;99.90
59208;DHT22;44977;53.132;6.408;2022-08-19T14:33:07;25.30;99.90
59208;DHT22;44977;53.132;6.408;2022-08-19T14:38:15;25.20;99.90
59208;DHT22;44977;53.132;6.408;2022-08-19T14:43:17;25.30;99.90
59208;DHT22;44977;53.132;6.408;2022-08-19T14:48:18;25.40;99.90
59208;DHT22;44977;53.132;6.408;2022-08-19T14:53:19;25.50;99.90
59208;DHT22;44977;53.132;6.408;2022-08-19T14:58:20;25.50;99.90
59208;DHT22;44977;53.132;6.408;2022-08-19T15:03:20;25.60;99.90
59208;DHT22;44977;53.132;6.408;2022-08-19T15:08:21;25.80;99.90
59208;DHT22;44977;53.132;6.408;2022-08-19T15:13:23;25.70;99.90
59208;DHT22;44977;53.132;6.408;2022-08-19T15:18:25;25.70;99.90
59208;DHT22;44977;53.132;6.408;2022-08-19T15:23:26;25.70;99.90
59208;DHT22;44977;53.132;6.408;2022-08-19T15:28:26;25.70;99.90
59208;DHT22;44977;53.132;6.408;2022-08-19T15:33:27;25.70;99.90
59208;DHT22;44977;53.132;6.408;2022-08-19T15:38:28;25.70;99.90
59208;DHT22;44977;53.132;6.408;2022-08-19T15:43:29;25.70;99.90
59208;DHT22;44977;53.132;6.408;2022-08-19T15:48:30;25.60;99.90
59208;DHT22;44977;53.132;6.408;2022-08-19T15:53:31;25.50;99.90
59208;DHT22;44977;53.132;6.408;2022-08-19T15:58:32;25.40;99.90
59208;DHT22;44977;53.132;6.408;2022-08-19T16:03:53;25.40;99.90
59208;DHT22;44977;53.132;6.408;2022-08-19T16:09:15;25.30;99.90
59208;DHT22;44977;53.132;6.408;2022-08-19T16:14:18;25.30;99.90
59208;DHT22;44977;53.132;6.408;2022-08-19T16:19:18;25.30;99.90
59208;DHT22;44977;53.132;6.408;2022-08-19T16:24:22;25.20;99.90
59208;DHT22;44977;53.132;6.408;2022-08-19T16:29:23;25.10;99.90
59208;DHT22;44977;53.132;6.408;2022-08-19T16:34:24;25.10;99.90
59208;DHT22;44977;53.132;6.408;2022-08-19T16:39:25;25.10;99.90
59208;DHT22;44977;53.132;6.408;2022-08-19T16:44:26;25.00;99.90
59208;DHT22;44977;53.132;6.408;2022-08-19T16:49:28;25.00;99.90
59208;DHT22;44977;53.132;6.408;2022-08-19T16:54:29;24.80;99.90
59208;DHT22;44977;53.132;6.408;2022-08-19T16:59:30;24.80;99.90
59208;DHT22;44977;53.132;6.408;2022-08-19T17:04:32;24.80;99.90
59208;DHT22;44977;53.132;6.408;2022-08-19T17:09:33;24.70;99.90
59208;DHT22;44977;53.132;6.408;2022-08-19T17:14:34;24.80;99.90
59208;DHT22;44977;53.132;6.408;2022-08-19T17:19:35;24.70;99.90
59208;DHT22;44977;53.132;6.408;2022-08-19T17:24:36;24.70;99.90
59208;DHT22;44977;53.132;6.408;2022-08-19T17:29:37;24.60;99.90
59208;DHT22;44977;53.132;6.408;2022-08-19T17:34:38;24.60;99.90
59208;DHT22;44977;53.132;6.408;2022-08-19T17:39:38;24.50;99.90
59208;DHT22;44977;53.132;6.408;2022-08-19T17:44:39;24.50;99.90
59208;DHT22;44977;53.132;6.408;2022-08-19T17:49:40;24.30;99.90
59208;DHT22;44977;53.132;6.408;2022-08-19T17:54:40;24.20;99.90
59208;DHT22;44977;53.132;6.408;2022-08-19T17:59:41;24.10;99.90
59208;DHT22;44977;53.132;6.408;2022-08-19T18:04:42;24.10;99.90
59208;DHT22;44977;53.132;6.408;2022-08-19T18:09:43;24.00;99.90
59208;DHT22;44977;53.132;6.408;2022-08-19T18:14:44;23.90;99.90
59208;DHT22;44977;53.132;6.408;2022-08-19T18:19:46;23.90;99.90
59208;DHT22;44977;53.132;6.408;2022-08-19T18:24:47;23.80;99.90
59208;DHT22;44977;53.132;6.408;2022-08-19T18:29:48;23.70;99.90
59208;DHT22;44977;53.132;6.408;2022-08-19T18:34:48;23.70;99.90
59208;DHT22;44977;53.132;6.408;2022-08-19T18:39:50;23.60;99.90
59208;DHT22;44977;53.132;6.408;2022-08-19T18:45:10;23.50;99.90
59208;DHT22;44977;53.132;6.408;2022-08-19T18:50:31;23.40;99.90
59208;DHT22;44977;53.132;6.408;2022-08-19T18:55:32;23.40;99.90
59208;DHT22;44977;53.132;6.408;2022-08-19T19:00:32;23.20;99.90
59208;DHT22;44977;53.132;6.408;2022-08-19T19:05:33;23.10;99.90
59208;DHT22;44977;53.132;6.408;2022-08-19T19:10:34;23.00;99.90
59208;DHT22;44977;53.132;6.408;2022-08-19T19:15:35;22.90;99.90
59208;DHT22;44977;53.132;6.408;2022-08-19T19:20:36;22.90;99.90
59208;DHT22;44977;53.132;6.408;2022-08-19T19:25:37;22.90;99.90
59208;DHT22;44977;53.132;6.408;2022-08-19T19:30:39;22.80;99.90
59208;DHT22;44977;53.132;6.408;2022-08-19T19:35:39;22.60;99.90
59208;DHT22;44977;53.132;6.408;2022-08-19T19:40:43;22.60;99.90
59208;DHT22;44977;53.132;6.408;2022-08-19T19:45:45;22.50;99.90
59208;DHT22;44977;53.132;6.408;2022-08-19T19:50:47;22.40;99.90
59208;DHT22;44977;53.132;6.408;2022-08-19T19:55:48;22.40;99.90
59208;DHT22;44977;53.132;6.408;2022-08-19T20:00:50;22.30;99.90
59208;DHT22;44977;53.132;6.408;2022-08-19T20:05:51;22.20;99.90
59208;DHT22;44977;53.132;6.408;2022-08-19T20:10:52;22.10;99.90
59208;DHT22;44977;53.132;6.408;2022-08-19T20:15:53;22.10;99.90
59208;DHT22;44977;53.132;6.408;2022-08-19T20:20:54;22.00;99.90
59208;DHT22;44977;53.132;6.408;2022-08-19T20:25:54;22.00;99.90
59208;DHT22;44977;53.132;6.408;2022-08-19T20:30:55;22.00;99.90
59208;DHT22;44977;53.132;6.408;2022-08-19T20:35:56;21.90;99.90
59208;DHT22;44977;53.132;6.408;2022-08-19T20:40:57;21.80;99.90
59208;DHT22;44977;53.132;6.408;2022-08-19T20:45:57;21.80;99.90
59208;DHT22;44977;53.132;6.408;2022-08-19T20:50:58;21.80;99.90
59208;DHT22;44977;53.132;6.408;2022-08-19T20:55:59;21.70;99.90
59208;DHT22;44977;53.132;6.408;2022-08-19T21:01:02;21.60;99.90
59208;DHT22;44977;53.132;6.408;2022-08-19T21:06:03;21.60;99.90
59208;DHT22;44977;53.132;6.408;2022-08-19T21:11:04;21.50;99.90
59208;DHT22;44977;53.132;6.408;2022-08-19T21:16:06;21.50;99.90
59208;DHT22;44977;53.132;6.408;2022-08-19T21:21:06;21.40;99.90
59208;DHT22;44977;53.132;6.408;2022-08-19T21:26:07;21.40;99.90
59208;DHT22;44977;53.132;6.408;2022-08-19T21:31:08;21.30;99.90
59208;DHT22;44977;53.132;6.408;2022-08-19T21:36:14;21.30;99.90
59208;DHT22;44977;53.132;6.408;2022-08-19T21:41:15;21.30;99.90
59208;DHT22;44977;53.132;6.408;2022-08-19T21:46:15;21.30;99.90
59208;DHT22;44977;53.132;6.408;2022-08-19T21:51:16;21.10;99.90
59208;DHT22;44977;53.132;6.408;2022-08-19T21:56:17;21.10;99.90
59208;DHT22;44977;53.132;6.408;2022-08-19T22:01:17;21.10;99.90
59208;DHT22;44977;53.132;6.408;2022-08-19T22:06:18;20.90;99.90
59208;DHT22;44977;53.132;6.408;2022-08-19T22:11:19;20.90;99.90
59208;DHT22;44977;53.132;6.408;2022-08-19T22:16:20;20.80;99.90
59208;DHT22;44977;53.132;6.408;2022-08-19T22:21:20;20.80;99.90
59208;DHT22;44977;53.132;6.408;2022-08-19T22:26:21;20.70;99.90
59208;DHT22;44977;53.132;6.408;2022-08-19T22:31:22;20.60;99.90
59208;DHT22;44977;53.132;6.408;2022-08-19T22:36:23;20.60;99.90
59208;DHT22;44977;53.132;6.408;2022-08-19T22:41:23;20.40;99.90
59208;DHT22;44977;53.132;6.408;2022-08-19T22:46:24;20.40;99.90
59208;DHT22;44977;53.132;6.408;2022-08-19T22:51:25;20.40;99.90
59208;DHT22;44977;53.132;6.408;2022-08-19T22:56:44;20.40;99.90
59208;DHT22;44977;53.132;6.408;2022-08-19T23:01:45;20.30;99.90
59208;DHT22;44977;53.132;6.408;2022-08-19T23:06:46;20.30;99.90
59208;DHT22;44977;53.132;6.408;2022-08-19T23:11:47;20.20;99.90
59208;DHT22;44977;53.132;6.408;2022-08-19T23:16:47;20.10;99.90
59208;DHT22;44977;53.132;6.408;2022-08-19T23:21:48;20.00;99.90
59208;DHT22;44977;53.132;6.408;2022-08-19T23:26:49;20.10;99.90
59208;DHT22;44977;53.132;6.408;2022-08-19T23:32:09;20.00;99.90
59208;DHT22;44977;53.132;6.408;2022-08-19T23:37:09;19.90;99.90
59208;DHT22;44977;53.132;6.408;2022-08-19T23:42:11;19.80;99.90
59208;DHT22;44977;53.132;6.408;2022-08-19T23:47:11;19.80;99.90
59208;DHT22;44977;53.132;6.408;2022-08-19T23:52:12;19.80;99.90
59208;DHT22;44977;53.132;6.408;2022-08-19T23:57:13;19.70;99.90
